sensor_id;sensor_type;location;lat;lon;timestamp;P1;durP1;ratioP1;P2;durP2;ratioP2
4563;SDS011;2294;51.818;8.484;2024-03-06T00:00:27;34.37;;;17.53;;
4563;SDS011;2294;51.818;8.484;2024-03-06T00:02:54;34.23;;;17.20;;
4563;SDS011;2294;51.818;8.484;2024-03-06T00:05:21;40.10;;;18.60;;
4563;SDS011;2294;51.818;8.484;2024-03-06T00:07:48;38.60;;;17.80;;
4563;SDS011;2294;51.818;8.484;2024-03-06T00:10:17;33.87;;;17.70;;
4563;SDS011;2294;51.818;8.484;2024-03-06T00:12:44;34.47;;;18.90;;
4563;SDS011;2294;51.818;8.484;2024-03-06T00:15:11;40.53;;;17.70;;
4563;SDS011;2294;51.818;8.484;2024-03-06T00:17:39;37.17;;;17.37;;
4563;SDS011;2294;51.818;8.484;2024-03-06T00:20:06;31.83;;;16.30;;
4563;SDS011;2294;51.818;8.484;2024-03-06T00:22:35;33.43;;;17.77;;
4563;SDS011;2294;51.818;8.484;2024-03-06T00:25:03;38.87;;;17.77;;
4563;SDS011;2294;51.818;8.484;2024-03-06T00:27:31;34.50;;;18.47;;
4563;SDS011;2294;51.818;8.484;2024-03-06T00:29:58;31.93;;;17.03;;
4563;SDS011;2294;51.818;8.484;2024-03-06T00:32:26;28.33;;;14.77;;
4563;SDS011;2294;51.818;8.484;2024-03-06T00:34:53;26.70;;;16.27;;
4563;SDS011;2294;51.818;8.484;2024-03-06T00:37:20;30.17;;;17.00;;
4563;SDS011;2294;51.818;8.484;2024-03-06T00:39:48;32.60;;;17.10;;
4563;SDS011;2294;51.818;8.484;2024-03-06T00:42:15;30.10;;;15.50;;
4563;SDS011;2294;51.818;8.484;2024-03-06T00:44:43;34.80;;;18.80;;
4563;SDS011;2294;51.818;8.484;2024-03-06T00:47:10;30.50;;;17.50;;
4563;SDS011;2294;51.818;8.484;2024-03-06T00:49:38;32.50;;;17.10;;
4563;SDS011;2294;51.818;8.484;2024-03-06T00:52:07;36.50;;;17.30;;
4563;SDS011;2294;51.818;8.484;2024-03-06T00:54:34;35.57;;;18.70;;
4563;SDS011;2294;51.818;8.484;2024-03-06T00:57:01;34.67;;;17.47;;
4563;SDS011;2294;51.818;8.484;2024-03-06T00:59:28;36.27;;;18.40;;
4563;SDS011;2294;51.818;8.484;2024-03-06T01:01:56;33.40;;;18.83;;
4563;SDS011;2294;51.818;8.484;2024-03-06T01:04:23;37.23;;;17.67;;
4563;SDS011;2294;51.818;8.484;2024-03-06T01:06:50;38.03;;;18.77;;
4563;SDS011;2294;51.818;8.484;2024-03-06T01:09:17;31.23;;;16.30;;
4563;SDS011;2294;51.818;8.484;2024-03-06T01:11:44;42.70;;;19.67;;
4563;SDS011;2294;51.818;8.484;2024-03-06T01:14:13;39.63;;;20.10;;
4563;SDS011;2294;51.818;8.484;2024-03-06T01:16:41;38.20;;;18.23;;
4563;SDS011;2294;51.818;8.484;2024-03-06T01:19:10;38.57;;;17.97;;
4563;SDS011;2294;51.818;8.484;2024-03-06T01:21:38;38.53;;;18.70;;
4563;SDS011;2294;51.818;8.484;2024-03-06T01:24:05;38.80;;;19.20;;
4563;SDS011;2294;51.818;8.484;2024-03-06T01:26:32;37.97;;;20.33;;
4563;SDS011;2294;51.818;8.484;2024-03-06T01:28:59;44.13;;;20.80;;
4563;SDS011;2294;51.818;8.484;2024-03-06T01:31:26;37.80;;;19.07;;
4563;SDS011;2294;51.818;8.484;2024-03-06T01:33:53;41.70;;;20.00;;
4563;SDS011;2294;51.818;8.484;2024-03-06T01:36:22;39.27;;;19.43;;
4563;SDS011;2294;51.818;8.484;2024-03-06T01:38:49;35.00;;;18.30;;
4563;SDS011;2294;51.818;8.484;2024-03-06T01:41:16;37.63;;;19.13;;
4563;SDS011;2294;51.818;8.484;2024-03-06T01:43:43;35.87;;;19.03;;
4563;SDS011;2294;51.818;8.484;2024-03-06T01:46:12;43.50;;;19.87;;
4563;SDS011;2294;51.818;8.484;2024-03-06T01:48:39;34.30;;;18.03;;
4563;SDS011;2294;51.818;8.484;2024-03-06T01:51:07;35.60;;;18.80;;
4563;SDS011;2294;51.818;8.484;2024-03-06T01:53:36;41.67;;;19.57;;
4563;SDS011;2294;51.818;8.484;2024-03-06T01:56:04;34.80;;;18.33;;
4563;SDS011;2294;51.818;8.484;2024-03-06T01:58:31;40.33;;;19.23;;
4563;SDS011;2294;51.818;8.484;2024-03-06T02:01:00;37.70;;;19.37;;
4563;SDS011;2294;51.818;8.484;2024-03-06T02:03:27;37.30;;;19.83;;
4563;SDS011;2294;51.818;8.484;2024-03-06T02:05:54;36.23;;;18.37;;
4563;SDS011;2294;51.818;8.484;2024-03-06T02:08:23;32.10;;;18.70;;
4563;SDS011;2294;51.818;8.484;2024-03-06T02:10:51;37.00;;;19.03;;
4563;SDS011;2294;51.818;8.484;2024-03-06T02:13:18;38.00;;;19.47;;
4563;SDS011;2294;51.818;8.484;2024-03-06T02:15:46;33.73;;;18.37;;
4563;SDS011;2294;51.818;8.484;2024-03-06T02:18:13;35.50;;;19.57;;
4563;SDS011;2294;51.818;8.484;2024-03-06T02:20:42;36.87;;;20.33;;
4563;SDS011;2294;51.818;8.484;2024-03-06T02:23:10;39.23;;;19.93;;
4563;SDS011;2294;51.818;8.484;2024-03-06T02:25:38;34.67;;;19.23;;
4563;SDS011;2294;51.818;8.484;2024-03-06T02:28:05;32.93;;;18.20;;
4563;SDS011;2294;51.818;8.484;2024-03-06T02:30:32;37.40;;;19.10;;
4563;SDS011;2294;51.818;8.484;2024-03-06T02:33:01;48.70;;;20.67;;
4563;SDS011;2294;51.818;8.484;2024-03-06T02:35:31;39.17;;;19.20;;
4563;SDS011;2294;51.818;8.484;2024-03-06T02:38:00;42.40;;;20.53;;
4563;SDS011;2294;51.818;8.484;2024-03-06T02:40:28;42.17;;;20.40;;
4563;SDS011;2294;51.818;8.484;2024-03-06T02:42:55;40.10;;;21.30;;
4563;SDS011;2294;51.818;8.484;2024-03-06T02:45:22;37.07;;;19.53;;
4563;SDS011;2294;51.818;8.484;2024-03-06T02:47:49;40.67;;;21.10;;
4563;SDS011;2294;51.818;8.484;2024-03-06T02:50:16;40.90;;;20.70;;
4563;SDS011;2294;51.818;8.484;2024-03-06T02:52:46;42.70;;;21.70;;
4563;SDS011;2294;51.818;8.484;2024-03-06T02:55:14;39.90;;;19.60;;
4563;SDS011;2294;51.818;8.484;2024-03-06T02:57:41;37.23;;;20.67;;
4563;SDS011;2294;51.818;8.484;2024-03-06T03:00:09;40.50;;;20.10;;
4563;SDS011;2294;51.818;8.484;2024-03-06T03:02:38;45.90;;;22.40;;
4563;SDS011;2294;51.818;8.484;2024-03-06T03:05:05;47.13;;;21.47;;
4563;SDS011;2294;51.818;8.484;2024-03-06T03:07:33;43.23;;;22.10;;
4563;SDS011;2294;51.818;8.484;2024-03-06T03:10:00;34.80;;;19.23;;
4563;SDS011;2294;51.818;8.484;2024-03-06T03:12:28;40.67;;;21.40;;
4563;SDS011;2294;51.818;8.484;2024-03-06T03:14:55;46.23;;;21.87;;
4563;SDS011;2294;51.818;8.484;2024-03-06T03:17:23;41.73;;;22.17;;
4563;SDS011;2294;51.818;8.484;2024-03-06T03:19:50;41.67;;;21.10;;
4563;SDS011;2294;51.818;8.484;2024-03-06T03:22:17;33.30;;;19.20;;
4563;SDS011;2294;51.818;8.484;2024-03-06T03:24:44;33.63;;;18.83;;
4563;SDS011;2294;51.818;8.484;2024-03-06T03:27:12;42.37;;;23.50;;
4563;SDS011;2294;51.818;8.484;2024-03-06T03:29:41;43.20;;;21.90;;
4563;SDS011;2294;51.818;8.484;2024-03-06T03:32:08;40.73;;;21.10;;
4563;SDS011;2294;51.818;8.484;2024-03-06T03:34:35;47.60;;;22.53;;
4563;SDS011;2294;51.818;8.484;2024-03-06T03:37:02;42.70;;;22.80;;
4563;SDS011;2294;51.818;8.484;2024-03-06T03:39:29;42.10;;;22.50;;
4563;SDS011;2294;51.818;8.484;2024-03-06T03:41:57;45.17;;;21.70;;
4563;SDS011;2294;51.818;8.484;2024-03-06T03:44:24;38.17;;;21.10;;
4563;SDS011;2294;51.818;8.484;2024-03-06T03:46:52;39.77;;;21.80;;
4563;SDS011;2294;51.818;8.484;2024-03-06T03:49:19;47.67;;;22.77;;
4563;SDS011;2294;51.818;8.484;2024-03-06T03:51:46;40.27;;;22.50;;
4563;SDS011;2294;51.818;8.484;2024-03-06T03:54:14;52.57;;;22.33;;
4563;SDS011;2294;51.818;8.484;2024-03-06T03:56:41;45.60;;;24.00;;
4563;SDS011;2294;51.818;8.484;2024-03-06T03:59:08;44.80;;;21.43;;
4563;SDS011;2294;51.818;8.484;2024-03-06T04:01:35;44.03;;;21.90;;
4563;SDS011;2294;51.818;8.484;2024-03-06T04:04:04;41.70;;;22.77;;
4563;SDS011;2294;51.818;8.484;2024-03-06T04:06:32;39.73;;;22.23;;
4563;SDS011;2294;51.818;8.484;2024-03-06T04:08:59;39.33;;;22.13;;
4563;SDS011;2294;51.818;8.484;2024-03-06T04:11:27;39.13;;;22.30;;
4563;SDS011;2294;51.818;8.484;2024-03-06T04:13:54;45.63;;;23.10;;
4563;SDS011;2294;51.818;8.484;2024-03-06T04:16:21;48.20;;;22.80;;
4563;SDS011;2294;51.818;8.484;2024-03-06T04:18:48;47.17;;;23.07;;
4563;SDS011;2294;51.818;8.484;2024-03-06T04:21:17;47.60;;;23.50;;
4563;SDS011;2294;51.818;8.484;2024-03-06T04:23:45;41.40;;;20.73;;
4563;SDS011;2294;51.818;8.484;2024-03-06T04:26:12;47.20;;;23.40;;
4563;SDS011;2294;51.818;8.484;2024-03-06T04:28:40;41.50;;;22.00;;
4563;SDS011;2294;51.818;8.484;2024-03-06T04:31:07;39.63;;;21.10;;
4563;SDS011;2294;51.818;8.484;2024-03-06T04:33:34;39.17;;;21.80;;
4563;SDS011;2294;51.818;8.484;2024-03-06T04:36:02;43.57;;;22.77;;
4563;SDS011;2294;51.818;8.484;2024-03-06T04:38:32;40.50;;;22.13;;
4563;SDS011;2294;51.818;8.484;2024-03-06T04:40:59;40.80;;;21.30;;
4563;SDS011;2294;51.818;8.484;2024-03-06T04:43:26;37.73;;;22.43;;
4563;SDS011;2294;51.818;8.484;2024-03-06T04:45:53;44.67;;;20.63;;
4563;SDS011;2294;51.818;8.484;2024-03-06T04:48:20;39.80;;;21.07;;
4563;SDS011;2294;51.818;8.484;2024-03-06T04:50:48;40.83;;;21.03;;
4563;SDS011;2294;51.818;8.484;2024-03-06T04:53:15;42.87;;;22.97;;
4563;SDS011;2294;51.818;8.484;2024-03-06T04:55:44;39.67;;;21.10;;
4563;SDS011;2294;51.818;8.484;2024-03-06T04:58:11;40.23;;;22.30;;
4563;SDS011;2294;51.818;8.484;2024-03-06T05:00:38;41.17;;;22.60;;
4563;SDS011;2294;51.818;8.484;2024-03-06T05:03:05;38.13;;;20.83;;
4563;SDS011;2294;51.818;8.484;2024-03-06T05:05:32;40.57;;;22.07;;
4563;SDS011;2294;51.818;8.484;2024-03-06T05:08:00;43.27;;;22.97;;
4563;SDS011;2294;51.818;8.484;2024-03-06T05:10:27;39.77;;;21.60;;
4563;SDS011;2294;51.818;8.484;2024-03-06T05:12:55;41.70;;;22.10;;
4563;SDS011;2294;51.818;8.484;2024-03-06T05:15:22;42.10;;;22.30;;
4563;SDS011;2294;51.818;8.484;2024-03-06T05:17:50;41.57;;;21.80;;
4563;SDS011;2294;51.818;8.484;2024-03-06T05:20:17;44.47;;;21.60;;
4563;SDS011;2294;51.818;8.484;2024-03-06T05:22:44;43.90;;;22.43;;
4563;SDS011;2294;51.818;8.484;2024-03-06T05:25:11;38.70;;;21.20;;
4563;SDS011;2294;51.818;8.484;2024-03-06T05:27:38;43.60;;;22.87;;
4563;SDS011;2294;51.818;8.484;2024-03-06T05:30:07;45.07;;;24.30;;
4563;SDS011;2294;51.818;8.484;2024-03-06T05:32:34;43.87;;;23.00;;
4563;SDS011;2294;51.818;8.484;2024-03-06T05:35:01;43.37;;;24.80;;
4563;SDS011;2294;51.818;8.484;2024-03-06T05:37:29;40.17;;;22.53;;
4563;SDS011;2294;51.818;8.484;2024-03-06T05:39:56;47.27;;;24.23;;
4563;SDS011;2294;51.818;8.484;2024-03-06T05:42:23;41.77;;;21.90;;
4563;SDS011;2294;51.818;8.484;2024-03-06T05:44:50;40.20;;;22.67;;
4563;SDS011;2294;51.818;8.484;2024-03-06T05:47:21;43.87;;;22.17;;
4563;SDS011;2294;51.818;8.484;2024-03-06T05:49:48;42.03;;;22.60;;
4563;SDS011;2294;51.818;8.484;2024-03-06T05:52:15;40.20;;;21.60;;
4563;SDS011;2294;51.818;8.484;2024-03-06T05:54:42;45.77;;;22.30;;
4563;SDS011;2294;51.818;8.484;2024-03-06T05:57:12;41.43;;;21.90;;
4563;SDS011;2294;51.818;8.484;2024-03-06T05:59:40;43.00;;;23.10;;
4563;SDS011;2294;51.818;8.484;2024-03-06T06:02:07;38.47;;;21.93;;
4563;SDS011;2294;51.818;8.484;2024-03-06T06:04:35;41.33;;;22.00;;
4563;SDS011;2294;51.818;8.484;2024-03-06T06:07:03;44.80;;;24.20;;
4563;SDS011;2294;51.818;8.484;2024-03-06T06:09:30;53.40;;;25.00;;
4563;SDS011;2294;51.818;8.484;2024-03-06T06:11:58;48.27;;;25.20;;
4563;SDS011;2294;51.818;8.484;2024-03-06T06:14:25;49.10;;;24.93;;
4563;SDS011;2294;51.818;8.484;2024-03-06T06:16:54;50.43;;;24.70;;
4563;SDS011;2294;51.818;8.484;2024-03-06T06:19:21;47.97;;;25.13;;
4563;SDS011;2294;51.818;8.484;2024-03-06T06:21:50;50.10;;;23.80;;
4563;SDS011;2294;51.818;8.484;2024-03-06T06:24:18;46.17;;;25.20;;
4563;SDS011;2294;51.818;8.484;2024-03-06T06:26:45;49.27;;;25.80;;
4563;SDS011;2294;51.818;8.484;2024-03-06T06:29:12;45.97;;;24.17;;
4563;SDS011;2294;51.818;8.484;2024-03-06T06:31:39;48.73;;;24.90;;
4563;SDS011;2294;51.818;8.484;2024-03-06T06:34:06;48.27;;;24.00;;
4563;SDS011;2294;51.818;8.484;2024-03-06T06:36:34;48.50;;;24.87;;
4563;SDS011;2294;51.818;8.484;2024-03-06T06:39:04;48.27;;;25.17;;
4563;SDS011;2294;51.818;8.484;2024-03-06T06:41:31;46.87;;;25.70;;
4563;SDS011;2294;51.818;8.484;2024-03-06T06:43:58;46.27;;;25.20;;
4563;SDS011;2294;51.818;8.484;2024-03-06T06:46:26;46.47;;;22.60;;
4563;SDS011;2294;51.818;8.484;2024-03-06T06:48:53;50.97;;;23.73;;
4563;SDS011;2294;51.818;8.484;2024-03-06T06:51:20;50.37;;;26.13;;
4563;SDS011;2294;51.818;8.484;2024-03-06T06:53:48;46.37;;;25.07;;
4563;SDS011;2294;51.818;8.484;2024-03-06T06:56:17;50.17;;;24.40;;
4563;SDS011;2294;51.818;8.484;2024-03-06T06:58:44;61.50;;;26.50;;
4563;SDS011;2294;51.818;8.484;2024-03-06T07:01:11;45.73;;;24.70;;
4563;SDS011;2294;51.818;8.484;2024-03-06T07:03:41;49.10;;;25.97;;
4563;SDS011;2294;51.818;8.484;2024-03-06T07:06:08;65.53;;;28.80;;
4563;SDS011;2294;51.818;8.484;2024-03-06T07:08:36;51.80;;;24.30;;
4563;SDS011;2294;51.818;8.484;2024-03-06T07:11:04;50.67;;;25.23;;
4563;SDS011;2294;51.818;8.484;2024-03-06T07:13:32;56.93;;;28.07;;
4563;SDS011;2294;51.818;8.484;2024-03-06T07:15:59;52.90;;;26.90;;
4563;SDS011;2294;51.818;8.484;2024-03-06T07:18:27;53.87;;;27.20;;
4563;SDS011;2294;51.818;8.484;2024-03-06T07:20:54;55.00;;;26.50;;
4563;SDS011;2294;51.818;8.484;2024-03-06T07:23:22;57.10;;;26.20;;
4563;SDS011;2294;51.818;8.484;2024-03-06T07:25:49;50.37;;;26.10;;
4563;SDS011;2294;51.818;8.484;2024-03-06T07:28:16;54.30;;;27.90;;
4563;SDS011;2294;51.818;8.484;2024-03-06T07:30:48;60.57;;;28.00;;
4563;SDS011;2294;51.818;8.484;2024-03-06T07:33:15;55.67;;;26.93;;
4563;SDS011;2294;51.818;8.484;2024-03-06T07:35:42;51.97;;;25.80;;
4563;SDS011;2294;51.818;8.484;2024-03-06T07:38:09;60.10;;;29.63;;
4563;SDS011;2294;51.818;8.484;2024-03-06T07:40:36;49.63;;;26.60;;
4563;SDS011;2294;51.818;8.484;2024-03-06T07:43:03;55.93;;;24.50;;
4563;SDS011;2294;51.818;8.484;2024-03-06T07:45:31;58.13;;;30.13;;
4563;SDS011;2294;51.818;8.484;2024-03-06T07:47:59;55.23;;;28.30;;
4563;SDS011;2294;51.818;8.484;2024-03-06T07:50:27;59.80;;;28.77;;
4563;SDS011;2294;51.818;8.484;2024-03-06T07:52:54;56.07;;;29.27;;
4563;SDS011;2294;51.818;8.484;2024-03-06T07:55:21;64.33;;;28.93;;
4563;SDS011;2294;51.818;8.484;2024-03-06T07:57:48;53.33;;;25.70;;
4563;SDS011;2294;51.818;8.484;2024-03-06T08:00:15;60.40;;;29.03;;
4563;SDS011;2294;51.818;8.484;2024-03-06T08:02:45;61.40;;;28.37;;
4563;SDS011;2294;51.818;8.484;2024-03-06T08:05:16;54.30;;;26.77;;
4563;SDS011;2294;51.818;8.484;2024-03-06T08:07:43;50.57;;;27.13;;
4563;SDS011;2294;51.818;8.484;2024-03-06T08:10:11;59.83;;;29.53;;
4563;SDS011;2294;51.818;8.484;2024-03-06T08:12:38;61.30;;;30.47;;
4563;SDS011;2294;51.818;8.484;2024-03-06T08:15:07;59.50;;;28.07;;
4563;SDS011;2294;51.818;8.484;2024-03-06T08:17:35;65.17;;;31.53;;
4563;SDS011;2294;51.818;8.484;2024-03-06T08:20:02;59.97;;;29.60;;
4563;SDS011;2294;51.818;8.484;2024-03-06T08:22:34;68.10;;;29.07;;
4563;SDS011;2294;51.818;8.484;2024-03-06T08:25:04;74.50;;;33.37;;
4563;SDS011;2294;51.818;8.484;2024-03-06T08:27:32;74.83;;;33.10;;
4563;SDS011;2294;51.818;8.484;2024-03-06T08:29:59;61.30;;;30.30;;
4563;SDS011;2294;51.818;8.484;2024-03-06T08:32:26;65.90;;;32.77;;
4563;SDS011;2294;51.818;8.484;2024-03-06T08:34:54;67.63;;;32.30;;
4563;SDS011;2294;51.818;8.484;2024-03-06T08:37:21;63.07;;;29.87;;
4563;SDS011;2294;51.818;8.484;2024-03-06T08:39:49;66.93;;;30.20;;
4563;SDS011;2294;51.818;8.484;2024-03-06T08:42:16;59.90;;;31.00;;
4563;SDS011;2294;51.818;8.484;2024-03-06T08:44:44;59.50;;;28.90;;
4563;SDS011;2294;51.818;8.484;2024-03-06T08:47:11;53.90;;;28.47;;
4563;SDS011;2294;51.818;8.484;2024-03-06T08:49:39;61.40;;;30.97;;
4563;SDS011;2294;51.818;8.484;2024-03-06T08:52:06;51.57;;;29.27;;
4563;SDS011;2294;51.818;8.484;2024-03-06T08:54:34;59.23;;;30.73;;
4563;SDS011;2294;51.818;8.484;2024-03-06T08:57:03;57.87;;;30.37;;
4563;SDS011;2294;51.818;8.484;2024-03-06T08:59:30;61.90;;;29.40;;
4563;SDS011;2294;51.818;8.484;2024-03-06T09:01:58;60.23;;;29.07;;
4563;SDS011;2294;51.818;8.484;2024-03-06T09:04:25;52.10;;;27.50;;
4563;SDS011;2294;51.818;8.484;2024-03-06T09:06:52;55.10;;;28.03;;
4563;SDS011;2294;51.818;8.484;2024-03-06T09:09:19;52.97;;;27.97;;
4563;SDS011;2294;51.818;8.484;2024-03-06T09:11:47;57.10;;;29.40;;
4563;SDS011;2294;51.818;8.484;2024-03-06T09:14:15;61.43;;;28.83;;
4563;SDS011;2294;51.818;8.484;2024-03-06T09:16:42;59.83;;;29.30;;
4563;SDS011;2294;51.818;8.484;2024-03-06T09:19:09;54.27;;;29.20;;
4563;SDS011;2294;51.818;8.484;2024-03-06T09:21:36;63.03;;;31.00;;
4563;SDS011;2294;51.818;8.484;2024-03-06T09:24:04;56.93;;;27.20;;
4563;SDS011;2294;51.818;8.484;2024-03-06T09:26:31;56.97;;;26.17;;
4563;SDS011;2294;51.818;8.484;2024-03-06T09:28:58;56.40;;;25.60;;
4563;SDS011;2294;51.818;8.484;2024-03-06T09:31:27;56.17;;;26.53;;
4563;SDS011;2294;51.818;8.484;2024-03-06T09:33:54;55.50;;;27.17;;
4563;SDS011;2294;51.818;8.484;2024-03-06T09:36:23;55.20;;;27.10;;
4563;SDS011;2294;51.818;8.484;2024-03-06T09:38:50;53.33;;;25.97;;
4563;SDS011;2294;51.818;8.484;2024-03-06T09:41:18;54.63;;;25.77;;
4563;SDS011;2294;51.818;8.484;2024-03-06T09:43:45;52.27;;;25.33;;
4563;SDS011;2294;51.818;8.484;2024-03-06T09:46:12;51.83;;;26.07;;
4563;SDS011;2294;51.818;8.484;2024-03-06T09:48:42;49.53;;;23.33;;
4563;SDS011;2294;51.818;8.484;2024-03-06T09:51:12;51.47;;;23.87;;
4563;SDS011;2294;51.818;8.484;2024-03-06T09:53:39;50.20;;;24.63;;
4563;SDS011;2294;51.818;8.484;2024-03-06T09:56:08;47.47;;;24.20;;
4563;SDS011;2294;51.818;8.484;2024-03-06T09:58:35;43.00;;;23.63;;
4563;SDS011;2294;51.818;8.484;2024-03-06T10:01:03;48.20;;;23.43;;
4563;SDS011;2294;51.818;8.484;2024-03-06T10:03:32;40.50;;;22.27;;
4563;SDS011;2294;51.818;8.484;2024-03-06T10:06:01;43.03;;;21.33;;
4563;SDS011;2294;51.818;8.484;2024-03-06T10:08:28;38.13;;;20.87;;
4563;SDS011;2294;51.818;8.484;2024-03-06T10:10:55;46.17;;;21.33;;
4563;SDS011;2294;51.818;8.484;2024-03-06T10:13:23;36.50;;;19.77;;
4563;SDS011;2294;51.818;8.484;2024-03-06T10:15:57;35.20;;;20.23;;
4563;SDS011;2294;51.818;8.484;2024-03-06T10:18:26;32.27;;;18.00;;
4563;SDS011;2294;51.818;8.484;2024-03-06T10:20:53;33.23;;;16.50;;
4563;SDS011;2294;51.818;8.484;2024-03-06T10:23:22;34.00;;;19.10;;
4563;SDS011;2294;51.818;8.484;2024-03-06T10:25:50;31.53;;;17.90;;
4563;SDS011;2294;51.818;8.484;2024-03-06T10:28:18;27.90;;;16.80;;
4563;SDS011;2294;51.818;8.484;2024-03-06T10:30:45;35.30;;;17.07;;
4563;SDS011;2294;51.818;8.484;2024-03-06T10:33:13;30.90;;;16.47;;
4563;SDS011;2294;51.818;8.484;2024-03-06T10:35:41;33.07;;;16.10;;
4563;SDS011;2294;51.818;8.484;2024-03-06T10:38:08;29.73;;;16.00;;
4563;SDS011;2294;51.818;8.484;2024-03-06T10:40:38;26.47;;;15.27;;
4563;SDS011;2294;51.818;8.484;2024-03-06T10:43:06;34.40;;;17.40;;
4563;SDS011;2294;51.818;8.484;2024-03-06T10:45:37;28.07;;;15.40;;
4563;SDS011;2294;51.818;8.484;2024-03-06T10:48:07;32.33;;;15.97;;
4563;SDS011;2294;51.818;8.484;2024-03-06T10:50:36;26.73;;;15.57;;
4563;SDS011;2294;51.818;8.484;2024-03-06T10:53:04;38.17;;;18.07;;
4563;SDS011;2294;51.818;8.484;2024-03-06T10:55:33;31.50;;;15.97;;
4563;SDS011;2294;51.818;8.484;2024-03-06T10:58:02;29.17;;;17.53;;
4563;SDS011;2294;51.818;8.484;2024-03-06T11:00:34;35.10;;;17.00;;
4563;SDS011;2294;51.818;8.484;2024-03-06T11:03:02;32.70;;;17.90;;
4563;SDS011;2294;51.818;8.484;2024-03-06T11:05:33;25.17;;;14.73;;
4563;SDS011;2294;51.818;8.484;2024-03-06T11:08:01;32.00;;;16.80;;
4563;SDS011;2294;51.818;8.484;2024-03-06T11:10:29;42.13;;;18.30;;
4563;SDS011;2294;51.818;8.484;2024-03-06T11:12:56;33.30;;;17.00;;
4563;SDS011;2294;51.818;8.484;2024-03-06T11:15:25;39.13;;;16.40;;
4563;SDS011;2294;51.818;8.484;2024-03-06T11:17:52;39.20;;;18.80;;
4563;SDS011;2294;51.818;8.484;2024-03-06T11:20:20;36.40;;;17.77;;
4563;SDS011;2294;51.818;8.484;2024-03-06T11:23:03;31.67;;;17.63;;
4563;SDS011;2294;51.818;8.484;2024-03-06T11:28:23;38.90;;;17.07;;
4563;SDS011;2294;51.818;8.484;2024-03-06T11:30:56;34.57;;;16.33;;
4563;SDS011;2294;51.818;8.484;2024-03-06T11:33:23;37.70;;;16.67;;
4563;SDS011;2294;51.818;8.484;2024-03-06T11:38:42;36.00;;;17.50;;
4563;SDS011;2294;51.818;8.484;2024-03-06T11:41:09;29.70;;;16.00;;
4563;SDS011;2294;51.818;8.484;2024-03-06T11:43:41;31.07;;;16.17;;
4563;SDS011;2294;51.818;8.484;2024-03-06T11:46:10;27.43;;;14.80;;
4563;SDS011;2294;51.818;8.484;2024-03-06T11:48:38;33.30;;;14.97;;
4563;SDS011;2294;51.818;8.484;2024-03-06T11:51:05;31.50;;;16.13;;
4563;SDS011;2294;51.818;8.484;2024-03-06T11:53:33;31.47;;;16.20;;
4563;SDS011;2294;51.818;8.484;2024-03-06T11:56:01;33.50;;;15.83;;
4563;SDS011;2294;51.818;8.484;2024-03-06T11:58:28;30.50;;;15.83;;
4563;SDS011;2294;51.818;8.484;2024-03-06T12:00:56;32.10;;;16.27;;
4563;SDS011;2294;51.818;8.484;2024-03-06T12:03:24;31.10;;;16.27;;
4563;SDS011;2294;51.818;8.484;2024-03-06T12:05:52;33.57;;;17.80;;
4563;SDS011;2294;51.818;8.484;2024-03-06T12:08:19;36.40;;;16.63;;
4563;SDS011;2294;51.818;8.484;2024-03-06T12:10:46;29.17;;;15.80;;
4563;SDS011;2294;51.818;8.484;2024-03-06T12:13:13;35.10;;;17.10;;
4563;SDS011;2294;51.818;8.484;2024-03-06T12:15:42;28.70;;;16.17;;
4563;SDS011;2294;51.818;8.484;2024-03-06T12:18:10;31.17;;;15.00;;
4563;SDS011;2294;51.818;8.484;2024-03-06T12:20:41;31.77;;;17.70;;
4563;SDS011;2294;51.818;8.484;2024-03-06T12:23:18;31.83;;;16.27;;
4563;SDS011;2294;51.818;8.484;2024-03-06T12:25:46;30.00;;;16.23;;
4563;SDS011;2294;51.818;8.484;2024-03-06T12:28:13;27.47;;;15.17;;
4563;SDS011;2294;51.818;8.484;2024-03-06T12:30:40;30.33;;;15.73;;
4563;SDS011;2294;51.818;8.484;2024-03-06T12:33:09;34.97;;;17.87;;
4563;SDS011;2294;51.818;8.484;2024-03-06T12:35:39;35.40;;;16.10;;
4563;SDS011;2294;51.818;8.484;2024-03-06T12:38:14;31.30;;;17.03;;
4563;SDS011;2294;51.818;8.484;2024-03-06T12:40:42;31.67;;;15.37;;
4563;SDS011;2294;51.818;8.484;2024-03-06T12:43:09;33.83;;;16.27;;
4563;SDS011;2294;51.818;8.484;2024-03-06T12:45:36;34.17;;;16.97;;
4563;SDS011;2294;51.818;8.484;2024-03-06T12:48:04;33.97;;;16.27;;
4563;SDS011;2294;51.818;8.484;2024-03-06T12:50:31;28.93;;;15.73;;
4563;SDS011;2294;51.818;8.484;2024-03-06T12:52:59;26.83;;;15.27;;
4563;SDS011;2294;51.818;8.484;2024-03-06T12:55:27;27.67;;;14.80;;
4563;SDS011;2294;51.818;8.484;2024-03-06T12:57:54;29.33;;;16.23;;
4563;SDS011;2294;51.818;8.484;2024-03-06T13:00:22;35.03;;;16.20;;
4563;SDS011;2294;51.818;8.484;2024-03-06T13:02:50;30.03;;;16.50;;
4563;SDS011;2294;51.818;8.484;2024-03-06T13:05:17;27.93;;;15.20;;
4563;SDS011;2294;51.818;8.484;2024-03-06T13:07:44;39.33;;;17.73;;
4563;SDS011;2294;51.818;8.484;2024-03-06T13:10:11;32.27;;;18.10;;
4563;SDS011;2294;51.818;8.484;2024-03-06T13:12:40;38.87;;;19.27;;
4563;SDS011;2294;51.818;8.484;2024-03-06T13:15:08;44.73;;;20.37;;
4563;SDS011;2294;51.818;8.484;2024-03-06T13:17:35;34.83;;;17.40;;
4563;SDS011;2294;51.818;8.484;2024-03-06T13:20:02;32.80;;;16.70;;
4563;SDS011;2294;51.818;8.484;2024-03-06T13:22:29;34.00;;;17.90;;
4563;SDS011;2294;51.818;8.484;2024-03-06T13:24:56;34.47;;;16.27;;
4563;SDS011;2294;51.818;8.484;2024-03-06T13:27:24;36.73;;;17.77;;
4563;SDS011;2294;51.818;8.484;2024-03-06T13:29:52;36.17;;;20.27;;
4563;SDS011;2294;51.818;8.484;2024-03-06T13:32:19;39.40;;;20.20;;
4563;SDS011;2294;51.818;8.484;2024-03-06T13:34:47;35.30;;;19.17;;
4563;SDS011;2294;51.818;8.484;2024-03-06T13:37:14;40.30;;;20.00;;
4563;SDS011;2294;51.818;8.484;2024-03-06T13:39:42;37.97;;;18.97;;
4563;SDS011;2294;51.818;8.484;2024-03-06T13:42:09;40.60;;;20.93;;
4563;SDS011;2294;51.818;8.484;2024-03-06T13:44:36;33.20;;;17.50;;
4563;SDS011;2294;51.818;8.484;2024-03-06T13:47:05;41.63;;;19.80;;
4563;SDS011;2294;51.818;8.484;2024-03-06T13:49:40;41.20;;;19.60;;
4563;SDS011;2294;51.818;8.484;2024-03-06T13:52:07;36.67;;;18.77;;
4563;SDS011;2294;51.818;8.484;2024-03-06T13:54:35;42.00;;;19.90;;
4563;SDS011;2294;51.818;8.484;2024-03-06T13:57:04;36.90;;;18.60;;
4563;SDS011;2294;51.818;8.484;2024-03-06T13:59:31;36.67;;;18.07;;
4563;SDS011;2294;51.818;8.484;2024-03-06T14:01:58;34.10;;;16.83;;
4563;SDS011;2294;51.818;8.484;2024-03-06T14:04:27;31.90;;;17.60;;
4563;SDS011;2294;51.818;8.484;2024-03-06T14:06:54;36.93;;;18.90;;
4563;SDS011;2294;51.818;8.484;2024-03-06T14:09:22;34.70;;;17.70;;
4563;SDS011;2294;51.818;8.484;2024-03-06T14:11:50;34.93;;;17.33;;
4563;SDS011;2294;51.818;8.484;2024-03-06T14:14:17;37.77;;;18.23;;
4563;SDS011;2294;51.818;8.484;2024-03-06T14:16:44;41.60;;;19.43;;
4563;SDS011;2294;51.818;8.484;2024-03-06T14:19:11;42.00;;;19.13;;
4563;SDS011;2294;51.818;8.484;2024-03-06T14:21:40;44.10;;;20.87;;
4563;SDS011;2294;51.818;8.484;2024-03-06T14:24:07;43.50;;;20.17;;
4563;SDS011;2294;51.818;8.484;2024-03-06T14:26:34;47.57;;;21.13;;
4563;SDS011;2294;51.818;8.484;2024-03-06T14:29:02;41.63;;;20.87;;
4563;SDS011;2294;51.818;8.484;2024-03-06T14:31:31;45.70;;;20.80;;
4563;SDS011;2294;51.818;8.484;2024-03-06T14:33:58;43.83;;;20.30;;
4563;SDS011;2294;51.818;8.484;2024-03-06T14:36:25;48.13;;;21.60;;
4563;SDS011;2294;51.818;8.484;2024-03-06T14:38:53;43.57;;;21.30;;
4563;SDS011;2294;51.818;8.484;2024-03-06T14:41:21;40.90;;;21.37;;
4563;SDS011;2294;51.818;8.484;2024-03-06T14:43:48;49.70;;;22.37;;
4563;SDS011;2294;51.818;8.484;2024-03-06T14:46:15;45.10;;;22.77;;
4563;SDS011;2294;51.818;8.484;2024-03-06T14:48:43;45.97;;;21.43;;
4563;SDS011;2294;51.818;8.484;2024-03-06T14:51:11;57.63;;;21.83;;
4563;SDS011;2294;51.818;8.484;2024-03-06T14:53:38;57.17;;;21.50;;
4563;SDS011;2294;51.818;8.484;2024-03-06T14:56:07;50.97;;;22.13;;